Banyoles, Spain
Current Conditions -  °F | °C
As of 1:00 AM on Wednesday 26 Nov 2014 (Local Time) from LEGE Reporting Station
Light Fog Light Fog  
Wind Chill: 59°   Ceiling: 200
Heat Index: 59°   Visibility: 0.09mi
Dew Point: 59°   Wind: 0mph
Humidity: 100%   Direction: NA
Pressure: 29.97"   Gusts: NA
Location:  42.12°N, 2.77°E
Report Text: LEGE 260000Z 00000KT 0150 R20/0450N BCFG OVC002 15/15 Q1015
Loading
Personal Weather Stations






























Interactive Weather Map New forecast layout! Learn more

10-Day Weather Forecast

Advertisements
Track Severe Weather on mobile